createdAt,value
2023-05-09T00:00:00.422Z,9.58
2023-05-09T00:02:28.623Z,9.60
2023-05-09T00:04:56.745Z,9.47
2023-05-09T00:07:24.105Z,9.48
2023-05-09T00:09:51.526Z,9.52
2023-05-09T00:12:18.891Z,9.51
2023-05-09T00:14:51.540Z,9.55
2023-05-09T00:17:19.040Z,9.51
2023-05-09T00:19:46.393Z,9.40
2023-05-09T00:22:13.806Z,9.53
2023-05-09T00:24:41.548Z,9.47
2023-05-09T00:27:09.059Z,9.36
2023-05-09T00:29:36.839Z,9.44
2023-05-09T00:32:06.199Z,9.42
2023-05-09T00:34:33.802Z,9.35
2023-05-09T00:37:01.583Z,9.30
2023-05-09T00:39:29.015Z,9.33
2023-05-09T00:41:57.297Z,9.33
2023-05-09T00:44:24.945Z,9.30
2023-05-09T00:46:52.403Z,9.27
2023-05-09T00:49:21.882Z,9.36
2023-05-09T00:51:50.002Z,9.29
2023-05-09T00:54:17.513Z,9.26
2023-05-09T00:56:45.769Z,9.27
2023-05-09T00:59:13.245Z,9.21
2023-05-09T01:01:40.904Z,9.07
2023-05-09T01:04:08.499Z,9.18
2023-05-09T01:06:46.237Z,9.12
2023-05-09T01:09:21.796Z,9.14
2023-05-09T01:11:57.016Z,9.03
2023-05-09T01:14:34.398Z,9.12
2023-05-09T01:17:08.989Z,9.12
2023-05-09T01:19:52.947Z,8.91
2023-05-09T01:22:26.937Z,8.82
2023-05-09T01:25:14.061Z,8.77
2023-05-09T01:27:51.920Z,8.83
2023-05-09T01:30:21.453Z,8.78
2023-05-09T01:32:52.318Z,8.89
2023-05-09T01:35:22.250Z,8.89
2023-05-09T01:37:51.868Z,8.76
2023-05-09T01:40:21.719Z,8.68
2023-05-09T01:42:53.590Z,8.64
2023-05-09T01:45:24.306Z,8.74
2023-05-09T01:47:52.244Z,8.76
2023-05-09T01:50:20.761Z,8.60
2023-05-09T01:52:50.488Z,8.68
2023-05-09T01:55:19.887Z,8.61
2023-05-09T01:57:48.688Z,8.63
2023-05-09T02:00:17.039Z,8.53
2023-05-09T02:02:46.575Z,8.58
2023-05-09T02:05:16.489Z,8.57
2023-05-09T02:07:45.806Z,8.62
2023-05-09T02:10:14.017Z,8.52
2023-05-09T02:12:41.477Z,8.40
2023-05-09T02:15:09.746Z,8.51
2023-05-09T02:17:37.222Z,8.45
2023-05-09T02:20:08.678Z,8.37
2023-05-09T02:22:36.657Z,8.38
2023-05-09T02:25:05.003Z,8.45
2023-05-09T02:27:34.575Z,8.43
2023-05-09T02:30:07.349Z,8.44
2023-05-09T02:32:36.854Z,8.43
2023-05-09T02:35:07.338Z,8.39
2023-05-09T02:37:35.086Z,8.34
2023-05-09T02:40:02.648Z,8.42
2023-05-09T02:42:30.192Z,8.31
2023-05-09T02:44:57.636Z,8.18
2023-05-09T02:47:25.689Z,8.35
2023-05-09T02:49:53.374Z,8.28
2023-05-09T02:52:22.194Z,8.16
2023-05-09T02:54:49.604Z,8.18
2023-05-09T02:57:17.221Z,8.03
2023-05-09T02:59:44.579Z,8.17
2023-05-09T03:02:12.147Z,8.03
2023-05-09T03:04:39.513Z,8.06
2023-05-09T03:07:06.907Z,8.10
2023-05-09T03:09:35.889Z,8.18
2023-05-09T03:12:03.752Z,7.97
2023-05-09T03:14:31.366Z,8.09
2023-05-09T03:16:58.776Z,8.13
2023-05-09T03:19:26.278Z,8.11
2023-05-09T03:21:53.709Z,8.04
2023-05-09T03:24:21.106Z,8.08
2023-05-09T03:26:49.813Z,8.06
2023-05-09T03:29:17.223Z,8.09
2023-05-09T03:31:44.652Z,8.11
2023-05-09T03:34:15.192Z,7.99
2023-05-09T03:36:43.488Z,7.99
2023-05-09T03:39:10.984Z,7.98
2023-05-09T03:41:38.598Z,7.88
2023-05-09T03:44:07.819Z,7.94
2023-05-09T03:46:35.298Z,7.88
2023-05-09T03:49:03.395Z,7.80
2023-05-09T03:51:32.251Z,7.86
2023-05-09T03:54:00.046Z,7.78
2023-05-09T03:56:27.562Z,7.75
2023-05-09T03:58:54.937Z,7.87
2023-05-09T04:01:23.721Z,7.90
2023-05-09T04:03:52.058Z,7.93
2023-05-09T04:06:19.725Z,7.94
2023-05-09T04:08:47.106Z,7.94
2023-05-09T04:11:14.538Z,8.10
2023-05-09T04:13:42.003Z,8.12
2023-05-09T04:16:09.474Z,8.21
2023-05-09T04:18:39.863Z,8.29
2023-05-09T04:21:07.315Z,8.34
2023-05-09T04:23:34.697Z,8.33
2023-05-09T04:26:02.392Z,8.68
2023-05-09T04:28:29.759Z,8.63
2023-05-09T04:30:57.212Z,8.86
2023-05-09T04:33:25.031Z,9.05
2023-05-09T04:35:54.993Z,9.14
2023-05-09T04:38:22.630Z,10.38
2023-05-09T04:40:50.068Z,12.61
2023-05-09T04:43:17.696Z,13.07
2023-05-09T04:45:46.095Z,13.63
2023-05-09T04:48:13.463Z,14.12
2023-05-09T04:50:41.909Z,13.47
2023-05-09T04:53:10.960Z,12.88
2023-05-09T04:55:38.362Z,11.81
2023-05-09T04:58:06.085Z,11.44
2023-05-09T05:00:33.474Z,11.46
2023-05-09T05:03:00.930Z,11.64
2023-05-09T05:05:28.577Z,12.02
2023-05-09T05:07:56.244Z,11.66
2023-05-09T05:10:24.956Z,11.20
2023-05-09T05:12:52.403Z,11.20
2023-05-09T05:15:20.366Z,11.16
2023-05-09T05:17:47.893Z,11.46
2023-05-09T05:20:15.317Z,11.24
2023-05-09T05:22:42.712Z,11.50
2023-05-09T05:25:10.514Z,11.59
2023-05-09T05:27:39.252Z,11.25
2023-05-09T05:30:07.786Z,11.73
2023-05-09T05:32:35.209Z,11.56
2023-05-09T05:35:04.793Z,11.56
2023-05-09T05:37:32.760Z,11.89
2023-05-09T05:40:00.191Z,11.68
2023-05-09T05:42:27.622Z,11.93
2023-05-09T05:44:56.365Z,11.70
2023-05-09T05:47:23.754Z,11.35
2023-05-09T05:49:51.876Z,12.25
2023-05-09T05:52:19.249Z,11.89
2023-05-09T05:54:46.685Z,12.17
2023-05-09T05:57:14.087Z,11.88
2023-05-09T05:59:41.562Z,12.03
2023-05-09T06:02:10.405Z,12.41
2023-05-09T06:04:37.795Z,12.26
2023-05-09T06:07:05.280Z,12.91
2023-05-09T06:09:32.717Z,12.54
2023-05-09T06:12:00.136Z,12.49
2023-05-09T06:14:27.542Z,12.20
2023-05-09T06:16:55.558Z,12.24
2023-05-09T06:19:24.304Z,12.76
2023-05-09T06:21:51.847Z,12.72
2023-05-09T06:24:31.876Z,12.87
2023-05-09T06:27:02.975Z,13.14
2023-05-09T06:29:30.392Z,12.85
2023-05-09T06:31:57.856Z,12.47
2023-05-09T06:34:26.632Z,13.19
2023-05-09T06:36:54.051Z,13.43
2023-05-09T06:39:21.491Z,13.31
2023-05-09T06:41:48.930Z,13.01
2023-05-09T06:44:16.319Z,13.01
2023-05-09T06:46:43.793Z,13.25
2023-05-09T06:49:13.718Z,13.25
2023-05-09T06:51:42.486Z,13.44
2023-05-09T06:54:09.972Z,13.56
2023-05-09T06:56:37.650Z,13.39
2023-05-09T06:59:05.342Z,13.45
2023-05-09T07:01:32.844Z,13.74
2023-05-09T07:04:00.294Z,14.26
2023-05-09T07:06:27.673Z,13.76
2023-05-09T07:08:56.758Z,14.14
2023-05-09T07:11:24.192Z,14.19
2023-05-09T07:13:51.682Z,14.20
2023-05-09T07:16:19.194Z,14.17
2023-05-09T07:18:46.571Z,14.31
2023-05-09T07:21:13.953Z,14.32
2023-05-09T07:23:41.340Z,14.27
2023-05-09T07:26:10.432Z,14.59
2023-05-09T07:28:37.843Z,14.48
2023-05-09T07:31:07.094Z,14.34
2023-05-09T07:33:35.070Z,14.19
2023-05-09T07:36:06.909Z,14.70
2023-05-09T07:38:34.887Z,14.90
2023-05-09T07:41:02.912Z,15.02
2023-05-09T07:43:32.391Z,15.04
2023-05-09T07:46:00.724Z,15.06
2023-05-09T07:48:28.237Z,15.36
2023-05-09T07:50:55.919Z,15.23
2023-05-09T07:53:23.365Z,15.70
2023-05-09T07:55:50.745Z,15.65
2023-05-09T07:58:18.160Z,15.30
2023-05-09T08:00:46.919Z,15.06
2023-05-09T08:03:14.500Z,15.23
2023-05-09T08:05:41.996Z,15.60
2023-05-09T08:08:09.722Z,15.73
2023-05-09T08:10:37.124Z,15.87
2023-05-09T08:13:04.551Z,15.25
2023-05-09T08:15:32.221Z,15.41
2023-05-09T08:18:00.950Z,15.16
2023-05-09T08:20:28.498Z,15.69
2023-05-09T08:22:55.902Z,15.81
2023-05-09T08:25:23.311Z,16.26
2023-05-09T08:27:52.367Z,15.91
2023-05-09T08:30:20.506Z,16.41
2023-05-09T08:32:47.938Z,16.36
2023-05-09T08:35:16.997Z,16.72
2023-05-09T08:37:45.324Z,16.74
2023-05-09T08:40:13.182Z,16.91
2023-05-09T08:42:41.419Z,17.12
2023-05-09T08:45:10.980Z,16.77
2023-05-09T08:47:39.973Z,17.18
2023-05-09T08:50:09.372Z,17.26
2023-05-09T08:52:38.510Z,17.43
2023-05-09T08:55:06.557Z,16.69
2023-05-09T08:57:35.689Z,16.56
2023-05-09T09:00:05.979Z,16.57
2023-05-09T09:02:33.702Z,17.80
2023-05-09T09:05:02.302Z,18.05
2023-05-09T09:07:31.466Z,18.15
2023-05-09T09:10:01.457Z,16.83
2023-05-09T09:12:28.938Z,17.94
2023-05-09T09:14:57.687Z,16.96
2023-05-09T09:17:28.092Z,17.69
2023-05-09T09:19:59.084Z,18.02
2023-05-09T09:22:33.852Z,18.11
2023-05-09T09:25:02.650Z,18.61
2023-05-09T09:27:30.276Z,18.42
2023-05-09T09:30:07.442Z,18.24
2023-05-09T09:32:35.720Z,18.12
2023-05-09T09:35:07.718Z,17.85
2023-05-09T09:37:36.011Z,18.31
2023-05-09T09:40:05.377Z,17.89
2023-05-09T09:42:41.931Z,17.84
2023-05-09T09:45:13.601Z,18.62
2023-05-09T09:47:41.693Z,18.19
2023-05-09T09:50:13.900Z,18.55
2023-05-09T09:52:44.140Z,17.91
2023-05-09T09:55:13.679Z,18.53
2023-05-09T09:57:44.055Z,18.33
2023-05-09T10:00:13.207Z,18.46
2023-05-09T10:02:51.664Z,19.17
2023-05-09T10:05:23.340Z,19.03
2023-05-09T10:07:58.901Z,18.17
2023-05-09T10:10:31.981Z,19.00
2023-05-09T10:13:05.293Z,18.78
2023-05-09T10:15:41.273Z,18.21
2023-05-09T10:18:19.814Z,18.80
2023-05-09T10:20:48.210Z,19.82
2023-05-09T10:23:18.192Z,19.84
2023-05-09T10:25:52.587Z,19.85
2023-05-09T10:28:25.152Z,19.51
2023-05-09T10:30:58.364Z,19.64
2023-05-09T10:33:31.695Z,19.98
2023-05-09T10:36:01.659Z,19.52
2023-05-09T10:38:29.690Z,19.42
2023-05-09T10:40:59.544Z,20.08
2023-05-09T10:43:27.264Z,19.81
2023-05-09T10:45:55.302Z,18.81
2023-05-09T10:48:24.136Z,19.30
2023-05-09T10:50:52.470Z,19.49
2023-05-09T10:53:21.634Z,19.71
2023-05-09T10:55:51.294Z,19.85
2023-05-09T10:58:26.216Z,19.86
2023-05-09T11:00:57.283Z,19.47
2023-05-09T11:03:25.887Z,19.58
2023-05-09T11:05:55.296Z,20.24
2023-05-09T11:08:25.157Z,20.46
2023-05-09T11:10:53.151Z,19.84
2023-05-09T11:13:24.429Z,19.64
2023-05-09T11:16:09.266Z,19.88
2023-05-09T11:18:51.084Z,19.87
2023-05-09T11:21:20.328Z,19.69
2023-05-09T11:23:49.379Z,20.10
2023-05-09T11:26:17.706Z,20.01
2023-05-09T11:28:54.563Z,20.28
2023-05-09T11:31:22.183Z,20.24
2023-05-09T11:33:55.028Z,19.38
2023-05-09T11:36:29.947Z,19.67
2023-05-09T11:39:06.726Z,20.31
2023-05-09T11:41:41.741Z,20.16
2023-05-09T11:44:16.537Z,20.10
2023-05-09T11:46:44.072Z,19.32
2023-05-09T11:49:12.411Z,19.12
2023-05-09T11:51:40.562Z,20.12
2023-05-09T11:54:08.995Z,19.74
2023-05-09T11:56:37.225Z,19.91
2023-05-09T11:59:05.086Z,20.15
2023-05-09T12:01:33.897Z,20.54
2023-05-09T12:04:03.716Z,20.19
2023-05-09T12:06:32.915Z,20.35
2023-05-09T12:09:00.372Z,20.40
2023-05-09T12:11:32.121Z,20.44
2023-05-09T12:13:59.602Z,20.17
2023-05-09T12:16:27.067Z,20.13
2023-05-09T12:18:55.852Z,20.23
2023-05-09T12:21:23.606Z,20.25
2023-05-09T12:23:52.506Z,20.07
2023-05-09T12:26:23.365Z,20.71
2023-05-09T12:28:51.466Z,20.37
2023-05-09T12:31:19.208Z,19.91
2023-05-09T12:33:47.144Z,20.31
2023-05-09T12:36:19.997Z,20.37
2023-05-09T12:38:54.104Z,20.41
2023-05-09T12:43:57.798Z,20.37
2023-05-09T12:46:25.647Z,20.48
2023-05-09T12:48:53.141Z,20.96
2023-05-09T12:51:22.864Z,20.55
2023-05-09T12:53:50.401Z,21.02
2023-05-09T12:56:19.382Z,20.59
2023-05-09T12:58:51.212Z,20.21
2023-05-09T13:01:18.971Z,20.26
2023-05-09T13:03:52.283Z,20.23
2023-05-09T13:06:21.008Z,20.21
2023-05-09T13:09:01.255Z,19.85
2023-05-09T13:11:29.048Z,20.08
2023-05-09T13:13:56.481Z,20.40
2023-05-09T13:16:23.978Z,20.83
2023-05-09T13:18:51.472Z,21.02
2023-05-09T13:21:19.281Z,20.63
2023-05-09T13:23:46.786Z,20.41
2023-05-09T13:26:15.652Z,20.24
2023-05-09T13:28:43.092Z,20.45
2023-05-09T13:31:10.681Z,20.30
2023-05-09T13:33:38.349Z,20.39
2023-05-09T13:36:07.162Z,20.68
2023-05-09T13:38:38.581Z,20.67
2023-05-09T13:41:06.011Z,20.58
2023-05-09T13:43:34.811Z,20.26
2023-05-09T13:46:02.553Z,20.19
2023-05-09T13:48:29.949Z,20.41
2023-05-09T13:50:59.959Z,20.43
2023-05-09T13:53:27.508Z,20.67
2023-05-09T13:55:54.954Z,20.34
2023-05-09T13:58:22.668Z,20.51
2023-05-09T14:00:51.508Z,20.62
2023-05-09T14:03:18.958Z,20.52
2023-05-09T14:05:46.635Z,20.32
2023-05-09T14:08:14.126Z,20.19
2023-05-09T14:10:41.666Z,20.32
2023-05-09T14:13:09.070Z,20.26
2023-05-09T14:15:36.562Z,20.18
2023-05-09T14:18:05.474Z,19.83
2023-05-09T14:20:34.892Z,19.96
2023-05-09T14:23:02.343Z,20.09
2023-05-09T14:25:29.715Z,20.00
2023-05-09T14:27:58.013Z,20.24
2023-05-09T14:30:26.542Z,19.81
2023-05-09T14:32:54.013Z,20.18
2023-05-09T14:35:23.074Z,20.13
2023-05-09T14:37:50.504Z,19.91
2023-05-09T14:40:18.071Z,19.88
2023-05-09T14:42:46.043Z,20.03
2023-05-09T14:45:15.275Z,19.93
2023-05-09T14:47:42.763Z,19.88
2023-05-09T14:50:15.660Z,19.98
2023-05-09T14:52:44.898Z,20.09
2023-05-09T14:55:12.752Z,19.86
2023-05-09T14:57:40.180Z,19.82
2023-05-09T15:00:20.390Z,19.91
2023-05-09T15:02:48.440Z,19.90
2023-05-09T15:05:16.689Z,19.67
2023-05-09T15:07:45.594Z,19.74
2023-05-09T15:10:13.440Z,19.78
2023-05-09T15:12:41.040Z,19.84
2023-05-09T15:15:16.479Z,19.69
2023-05-09T15:17:44.231Z,19.69
2023-05-09T15:20:13.404Z,19.51
2023-05-09T15:22:40.963Z,19.68
2023-05-09T15:25:10.549Z,19.65
2023-05-09T15:27:38.397Z,19.55
2023-05-09T15:30:07.028Z,19.71
2023-05-09T15:32:36.100Z,19.81
2023-05-09T15:35:03.671Z,19.68
2023-05-09T15:37:31.026Z,19.59
2023-05-09T15:39:58.848Z,19.50
2023-05-09T15:42:28.102Z,19.57
2023-05-09T15:44:55.594Z,19.61
2023-05-09T15:47:23.058Z,19.79
2023-05-09T15:49:50.484Z,19.47
2023-05-09T15:52:18.019Z,19.59
2023-05-09T15:54:45.874Z,19.59
2023-05-09T15:57:13.477Z,19.49
2023-05-09T15:59:42.171Z,19.46
2023-05-09T16:02:10.319Z,19.63
2023-05-09T16:04:38.371Z,19.42
2023-05-09T16:07:06.027Z,19.43
2023-05-09T16:09:33.760Z,19.39
2023-05-09T16:12:04.836Z,19.46
2023-05-09T16:14:32.474Z,19.26
2023-05-09T16:17:02.538Z,19.17
2023-05-09T16:19:30.094Z,19.26
2023-05-09T16:21:57.511Z,19.34
2023-05-09T16:24:25.303Z,19.26
2023-05-09T16:26:52.698Z,19.19
2023-05-09T16:29:20.254Z,19.35
2023-05-09T16:31:47.986Z,19.39
2023-05-09T16:34:16.720Z,19.29
2023-05-09T16:36:46.348Z,19.33
2023-05-09T16:39:13.827Z,19.17
2023-05-09T16:41:41.202Z,19.16
2023-05-09T16:44:09.064Z,19.10
2023-05-09T16:46:36.442Z,19.05
2023-05-09T16:49:04.160Z,19.03
2023-05-09T16:51:32.870Z,18.99
2023-05-09T16:54:00.232Z,18.92
2023-05-09T16:56:30.453Z,18.84
2023-05-09T16:58:57.811Z,18.81
2023-05-09T17:01:25.277Z,18.89
2023-05-09T17:03:52.808Z,18.87
2023-05-09T17:06:20.236Z,18.82
2023-05-09T17:08:49.492Z,18.85
2023-05-09T17:11:16.957Z,18.91
2023-05-09T17:13:44.333Z,18.75
2023-05-09T17:16:11.768Z,18.80
2023-05-09T17:18:39.219Z,18.69
2023-05-09T17:21:06.793Z,18.67
2023-05-09T17:23:34.178Z,18.59
2023-05-09T17:26:03.774Z,18.43
2023-05-09T17:28:31.172Z,18.32
2023-05-09T17:30:59.158Z,18.41
2023-05-09T17:33:26.738Z,18.41
2023-05-09T17:35:54.544Z,18.35
2023-05-09T17:38:21.974Z,18.28
2023-05-09T17:40:49.507Z,18.14
2023-05-09T17:43:18.206Z,18.23
2023-05-09T17:45:46.230Z,18.14
2023-05-09T17:48:14.290Z,18.03
2023-05-09T17:50:42.097Z,18.04
2023-05-09T17:53:09.922Z,17.96
2023-05-09T17:55:37.382Z,17.97
2023-05-09T17:58:04.796Z,17.87
2023-05-09T18:00:33.490Z,17.86
2023-05-09T18:03:03.665Z,17.75
2023-05-09T18:05:31.153Z,17.69
2023-05-09T18:08:00.780Z,17.60
2023-05-09T18:10:28.875Z,17.58
2023-05-09T18:12:56.533Z,17.44
2023-05-09T18:15:25.394Z,17.41
2023-05-09T18:17:54.786Z,17.37
2023-05-09T18:20:22.409Z,17.29
2023-05-09T18:22:49.786Z,17.30
2023-05-09T18:25:17.252Z,17.11
2023-05-09T18:27:44.696Z,17.10
2023-05-09T18:30:12.905Z,17.07
2023-05-09T18:32:40.874Z,17.02
2023-05-09T18:35:10.519Z,16.93
2023-05-09T18:37:39.663Z,16.83
2023-05-09T18:40:13.826Z,16.75
2023-05-09T18:42:41.569Z,16.65
2023-05-09T18:45:09.930Z,16.64
2023-05-09T18:47:37.787Z,16.63
2023-05-09T18:50:06.992Z,16.50
2023-05-09T18:52:37.669Z,16.47
2023-05-09T18:55:06.070Z,16.46
2023-05-09T18:57:33.840Z,16.37
2023-05-09T19:00:04.681Z,16.34
2023-05-09T19:02:32.051Z,16.26
2023-05-09T19:05:00.690Z,16.24
2023-05-09T19:07:29.145Z,16.17
2023-05-09T19:09:57.854Z,16.18
2023-05-09T19:12:25.441Z,16.16
2023-05-09T19:14:52.872Z,16.01
2023-05-09T19:17:21.298Z,16.09
2023-05-09T19:19:48.914Z,16.05
2023-05-09T19:22:16.319Z,16.04
2023-05-09T19:24:43.680Z,15.95
2023-05-09T19:27:12.423Z,15.78
2023-05-09T19:29:39.860Z,15.87
2023-05-09T19:32:07.377Z,15.76
2023-05-09T19:34:34.817Z,15.71
2023-05-09T19:37:02.196Z,15.74
2023-05-09T19:39:29.797Z,15.76
2023-05-09T19:41:59.718Z,15.70
2023-05-09T19:44:30.225Z,15.69
2023-05-09T19:46:58.462Z,15.58
2023-05-09T19:49:26.842Z,15.49
2023-05-09T19:51:54.200Z,15.57
2023-05-09T19:54:24.547Z,15.51
2023-05-09T19:56:51.938Z,15.44
2023-05-09T19:59:19.331Z,15.44
2023-05-09T20:01:48.128Z,15.44
2023-05-09T20:04:16.400Z,15.31
2023-05-09T20:06:43.813Z,15.35
2023-05-09T20:09:11.271Z,15.30
2023-05-09T20:11:38.644Z,15.24
2023-05-09T20:14:06.017Z,15.20
2023-05-09T20:16:36.716Z,15.20
2023-05-09T20:19:07.537Z,15.22
2023-05-09T20:21:34.916Z,15.18
2023-05-09T20:24:02.679Z,15.03
2023-05-09T20:26:30.156Z,15.07
2023-05-09T20:29:01.249Z,15.00
2023-05-09T20:31:29.142Z,14.96
2023-05-09T20:33:57.460Z,14.88
2023-05-09T20:36:26.612Z,14.88
2023-05-09T20:38:54.083Z,14.83
2023-05-09T20:41:23.553Z,14.85
2023-05-09T20:43:51.131Z,14.84
2023-05-09T20:46:18.675Z,14.84
2023-05-09T20:48:46.465Z,14.81
2023-05-09T20:51:13.815Z,14.76
2023-05-09T20:53:42.566Z,14.74
2023-05-09T20:56:09.974Z,14.76
2023-05-09T20:58:37.351Z,14.67
2023-05-09T21:01:04.773Z,14.65
2023-05-09T21:03:32.322Z,14.68
2023-05-09T21:05:59.709Z,14.65
2023-05-09T21:08:27.145Z,14.70
2023-05-09T21:10:55.941Z,14.58
2023-05-09T21:13:23.734Z,14.60
2023-05-09T21:15:51.230Z,14.53
2023-05-09T21:18:18.620Z,14.50
2023-05-09T21:20:46.074Z,14.50
2023-05-09T21:23:14.275Z,14.47
2023-05-09T21:25:41.708Z,14.39
2023-05-09T21:28:10.755Z,14.50
2023-05-09T21:30:38.133Z,14.46
2023-05-09T21:33:05.590Z,14.38
2023-05-09T21:35:32.988Z,14.48
2023-05-09T21:38:00.377Z,14.50
2023-05-09T21:40:27.766Z,14.42
2023-05-09T21:42:55.138Z,14.46
2023-05-09T21:45:24.186Z,14.48
2023-05-09T21:47:51.691Z,14.32
2023-05-09T21:50:19.515Z,14.33
2023-05-09T21:52:47.044Z,14.35
2023-05-09T21:55:14.415Z,14.30
2023-05-09T21:57:42.086Z,14.33
2023-05-09T22:00:14.252Z,14.29
2023-05-09T22:02:43.528Z,14.16
2023-05-09T22:05:11.493Z,14.16
2023-05-09T22:07:39.180Z,14.08
2023-05-09T22:10:07.672Z,14.09
2023-05-09T22:12:35.070Z,14.03
2023-05-09T22:15:02.959Z,14.08
2023-05-09T22:17:30.478Z,14.08
2023-05-09T22:19:59.154Z,14.07
2023-05-09T22:22:27.206Z,14.14
2023-05-09T22:24:54.593Z,14.07
2023-05-09T22:27:22.071Z,14.15
2023-05-09T22:29:49.543Z,14.15
2023-05-09T22:32:17.044Z,14.15
2023-05-09T22:34:47.462Z,14.04
2023-05-09T22:37:16.169Z,14.08
2023-05-09T22:39:43.589Z,14.06
2023-05-09T22:42:11.298Z,14.06
2023-05-09T22:44:39.344Z,13.96
2023-05-09T22:47:07.893Z,14.05
2023-05-09T22:49:35.431Z,13.99
2023-05-09T22:52:03.163Z,13.92
2023-05-09T22:54:31.898Z,13.86
2023-05-09T22:56:59.268Z,13.78
2023-05-09T22:59:27.061Z,13.82
2023-05-09T23:01:54.479Z,13.78
2023-05-09T23:04:22.089Z,13.72
2023-05-09T23:06:49.450Z,13.73
2023-05-09T23:09:16.868Z,13.76
2023-05-09T23:11:45.621Z,13.75
2023-05-09T23:14:13.001Z,13.71
2023-05-09T23:16:40.454Z,13.75
2023-05-09T23:19:07.829Z,13.71
2023-05-09T23:21:35.199Z,13.59
2023-05-09T23:24:02.624Z,13.62
2023-05-09T23:26:30.028Z,13.65
2023-05-09T23:28:58.701Z,13.55
2023-05-09T23:31:26.122Z,13.61
2023-05-09T23:33:53.521Z,13.47
2023-05-09T23:36:20.857Z,13.55
2023-05-09T23:38:48.298Z,13.50
2023-05-09T23:41:15.682Z,13.41
2023-05-09T23:43:43.122Z,13.48
2023-05-09T23:46:11.848Z,13.41
2023-05-09T23:48:39.330Z,13.39
2023-05-09T23:51:06.877Z,13.42
2023-05-09T23:53:37.061Z,13.40
2023-05-09T23:56:04.881Z,13.39
2023-05-09T23:58:32.285Z,13.39
